createdAt,value
2019-03-19T07:22:25.318Z,11.13
2019-03-19T08:09:25.983Z,12.34
2019-03-19T08:12:10.710Z,12.07
2019-03-19T08:15:26.302Z,11.79
2019-03-19T08:21:29.978Z,11.81
2019-03-19T08:28:00.370Z,11.72
2019-03-19T08:43:57.197Z,11.83
2019-03-19T08:54:11.083Z,11.59
2019-03-19T09:09:20.280Z,11.43
2019-03-19T09:16:01.097Z,11.21
2019-03-19T09:41:01.404Z,11.17
2019-03-19T09:47:14.379Z,11.07
2019-03-19T09:50:16.829Z,10.99
2019-03-19T09:53:00.849Z,10.93
2019-03-19T09:55:38.668Z,11.08
2019-03-19T09:58:36.174Z,11.10
2019-03-19T10:01:24.180Z,11.09
2019-03-19T10:04:12.546Z,11.05
2019-03-19T10:10:27.819Z,10.79
2019-03-19T10:13:05.575Z,10.62
2019-03-19T10:15:58.211Z,10.74
2019-03-19T10:18:47.803Z,10.71
2019-03-19T10:24:15.477Z,10.44
2019-03-19T10:30:27.479Z,10.85
2019-03-19T10:32:48.784Z,10.91
2019-03-19T10:35:30.045Z,10.84
2019-03-19T10:38:09.497Z,10.73
2019-03-19T10:44:06.928Z,10.55
2019-03-19T10:50:27.490Z,10.33
2019-03-19T10:53:13.780Z,10.32
2019-03-19T10:55:46.063Z,10.28
2019-03-19T11:01:42.271Z,10.43
2019-03-19T11:04:31.371Z,10.36
2019-03-19T11:25:55.914Z,10.14
2019-03-19T11:28:41.053Z,10.26
2019-03-19T11:31:53.760Z,10.47
2019-03-19T11:38:13.808Z,10.62
2019-03-19T11:44:49.481Z,10.69
2019-03-19T11:51:06.073Z,10.48
2019-03-19T12:11:53.869Z,10.11
2019-03-19T12:31:02.809Z,10.35
2019-03-19T12:59:31.800Z,9.77
2019-03-19T13:05:22.482Z,9.42
2019-03-19T13:11:11.712Z,9.15
2019-03-19T13:13:42.960Z,8.99
2019-03-19T13:16:17.180Z,9.02
2019-03-19T13:18:48.416Z,8.96
2019-03-19T13:21:20.332Z,8.99
2019-03-19T13:23:51.495Z,9.09
2019-03-19T13:26:23.210Z,9.19
2019-03-19T13:28:54.471Z,9.19
2019-03-19T13:31:27.841Z,9.15
2019-03-19T13:33:59.923Z,9.18
2019-03-19T13:45:51.756Z,8.95
2019-03-19T13:48:32.202Z,8.91
2019-03-19T13:57:21.934Z,9.03
2019-03-19T14:01:59.828Z,8.97
2019-03-19T14:06:58.760Z,8.97
2019-03-19T14:09:35.776Z,8.82
2019-03-19T14:18:58.703Z,8.52
2019-03-19T14:21:26.692Z,8.45
2019-03-19T14:23:57.606Z,8.51
2019-03-19T14:26:29.677Z,8.51
2019-03-19T14:29:00.522Z,8.55
2019-03-19T14:31:32.321Z,8.48
2019-03-19T14:34:03.210Z,8.47
2019-03-19T14:36:35.052Z,8.48
2019-03-19T14:39:10.784Z,8.46
2019-03-19T14:41:41.744Z,8.43
2019-03-19T14:44:15.517Z,8.41
2019-03-19T14:46:46.467Z,8.43
2019-03-19T14:49:17.487Z,8.39
2019-03-19T14:51:48.494Z,8.33
2019-03-19T14:54:19.368Z,8.27
2019-03-19T14:56:50.289Z,8.20
2019-03-19T14:59:21.162Z,8.26
2019-03-19T15:01:52.088Z,8.22
2019-03-19T15:04:24.602Z,8.16
2019-03-19T15:06:56.431Z,8.08
2019-03-19T15:09:27.324Z,8.11
2019-03-19T15:11:58.238Z,8.03
2019-03-19T15:14:29.128Z,8.04
2019-03-19T15:17:04.772Z,7.89
2019-03-19T15:19:32.703Z,7.81
2019-03-19T15:22:04.530Z,7.69
2019-03-19T15:24:35.423Z,7.68
2019-03-19T15:27:06.360Z,7.68
2019-03-19T15:29:37.262Z,7.56
2019-03-19T15:32:08.202Z,7.45
2019-03-19T15:34:39.135Z,7.52
2019-03-19T15:37:11.079Z,7.46
2019-03-19T15:39:42.229Z,7.44
2019-03-19T15:42:13.177Z,7.35
2019-03-19T15:44:44.076Z,7.25
2019-03-19T15:47:15.008Z,7.19
2019-03-19T15:49:46.622Z,7.13
2019-03-19T15:52:18.347Z,7.18
2019-03-19T15:54:49.251Z,7.11
2019-03-19T15:57:20.176Z,7.03
2019-03-19T15:59:51.092Z,7.02
2019-03-19T16:02:22.083Z,7.03
2019-03-19T16:04:54.713Z,6.90
2019-03-19T16:07:26.541Z,6.86
2019-03-19T16:09:57.491Z,6.73
2019-03-19T16:12:28.424Z,6.78
2019-03-19T16:14:59.317Z,6.79
2019-03-19T16:17:30.237Z,6.71
2019-03-19T16:20:01.201Z,6.60
2019-03-19T16:22:33.007Z,6.57
2019-03-19T16:25:04.008Z,6.56
2019-03-19T16:27:35.004Z,6.56
2019-03-19T16:30:16.592Z,6.49
2019-03-19T16:32:49.078Z,6.50
2019-03-19T16:35:19.977Z,6.45
2019-03-19T16:37:51.730Z,6.37
2019-03-19T16:40:23.535Z,6.31
2019-03-19T16:42:54.447Z,6.28
2019-03-19T16:45:25.348Z,6.26
2019-03-19T16:47:56.282Z,6.10
2019-03-19T16:50:27.203Z,6.01
2019-03-19T16:52:59.059Z,5.99
2019-03-19T16:55:29.954Z,5.95
2019-03-19T16:58:01.103Z,5.88
2019-03-19T17:00:32.072Z,5.80
2019-03-19T17:03:03.007Z,5.78
2019-03-19T17:05:34.702Z,5.66
2019-03-19T17:08:16.035Z,5.61
2019-03-19T17:10:52.227Z,5.55
2019-03-19T17:13:23.161Z,5.50
2019-03-19T17:15:54.133Z,5.44
2019-03-19T17:18:25.105Z,5.41
2019-03-19T17:20:56.165Z,5.35
2019-03-19T17:23:28.085Z,5.31
2019-03-19T17:25:59.170Z,5.27
2019-03-19T17:28:30.222Z,5.27
2019-03-19T17:31:01.137Z,5.26
2019-03-19T17:33:32.063Z,5.24
2019-03-19T17:36:02.982Z,5.21
2019-03-19T17:38:34.758Z,5.17
2019-03-19T17:41:05.718Z,5.11
2019-03-19T17:43:36.658Z,5.08
2019-03-19T17:46:07.556Z,5.02
2019-03-19T17:48:38.496Z,4.97
2019-03-19T17:51:16.528Z,4.92
2019-03-19T17:53:48.385Z,4.88
2019-03-19T17:56:19.284Z,4.82
2019-03-19T17:58:50.226Z,4.78
2019-03-19T18:01:21.205Z,4.73
2019-03-19T18:03:52.153Z,4.69
2019-03-19T18:06:24.011Z,4.65
2019-03-19T18:08:54.959Z,4.61
2019-03-19T18:11:26.036Z,4.56
2019-03-19T18:13:58.594Z,4.50
2019-03-19T18:16:31.734Z,4.45
2019-03-19T18:19:02.684Z,4.41
2019-03-19T18:21:33.585Z,4.37
2019-03-19T18:24:05.481Z,4.34
2019-03-19T18:26:36.392Z,4.30
2019-03-19T18:29:07.396Z,4.26
2019-03-19T18:31:38.374Z,4.22
2019-03-19T18:34:10.489Z,4.16
2019-03-19T18:36:41.689Z,4.12
2019-03-19T18:39:16.110Z,4.06
2019-03-19T18:41:46.177Z,4.03
2019-03-19T18:44:20.015Z,4.00
2019-03-19T18:46:55.541Z,3.97
2019-03-19T18:49:26.465Z,3.92
2019-03-19T18:51:57.381Z,3.88
2019-03-19T18:54:29.188Z,3.85
2019-03-19T18:57:01.123Z,3.76
2019-03-19T18:59:32.102Z,3.76
2019-03-19T19:02:03.064Z,3.71
2019-03-19T19:04:34.032Z,3.63
2019-03-19T19:07:06.570Z,3.62
2019-03-19T19:09:38.511Z,3.58
2019-03-19T19:12:09.460Z,3.55
2019-03-19T19:14:40.521Z,3.53
2019-03-19T19:17:13.210Z,3.49
2019-03-19T19:19:44.114Z,3.47
2019-03-19T19:22:15.136Z,3.46
2019-03-19T19:24:46.142Z,3.41
2019-03-19T19:27:17.109Z,3.41
2019-03-19T19:29:48.189Z,3.38
2019-03-19T19:32:19.212Z,3.37
2019-03-19T19:34:52.500Z,3.36
2019-03-19T19:37:23.463Z,3.32
2019-03-19T19:39:55.304Z,3.31
2019-03-19T19:42:26.400Z,3.29
2019-03-19T19:44:59.393Z,3.28
2019-03-19T19:47:30.338Z,3.23
2019-03-19T19:50:02.087Z,3.22
2019-03-19T19:52:33.122Z,3.18
2019-03-19T19:55:06.135Z,3.16
2019-03-19T19:57:37.106Z,3.13
2019-03-19T20:00:11.259Z,3.09
2019-03-19T20:02:42.291Z,3.00
2019-03-19T20:05:13.340Z,3.00
2019-03-19T20:07:46.039Z,2.98
2019-03-19T20:10:25.289Z,2.95
2019-03-19T20:13:12.185Z,2.84
2019-03-19T20:15:29.001Z,2.84
2019-03-19T20:17:59.912Z,2.87
2019-03-19T20:20:34.409Z,2.81
2019-03-19T20:23:05.340Z,2.81
2019-03-19T20:25:37.191Z,2.81
2019-03-19T20:28:08.198Z,2.78
2019-03-19T20:30:39.233Z,2.78
2019-03-19T20:33:10.249Z,2.78
2019-03-19T20:35:41.250Z,2.76
2019-03-19T20:38:12.311Z,2.73
2019-03-19T20:40:44.312Z,2.69
2019-03-19T20:43:15.248Z,2.62
2019-03-19T20:45:46.319Z,2.66
2019-03-19T20:48:17.390Z,2.63
2019-03-19T20:50:48.374Z,2.60
2019-03-19T20:53:19.280Z,2.58
2019-03-19T20:55:51.076Z,2.55
2019-03-19T20:58:21.974Z,2.52
2019-03-19T21:00:52.997Z,2.52
2019-03-19T21:03:23.902Z,2.50
2019-03-19T21:05:54.913Z,2.49
2019-03-19T21:08:26.728Z,2.48
2019-03-19T21:10:57.808Z,2.43
2019-03-19T21:13:28.792Z,2.43
2019-03-19T21:15:59.795Z,2.39
2019-03-19T21:18:30.703Z,2.36
2019-03-19T21:21:01.646Z,2.36
2019-03-19T21:23:32.652Z,2.40
2019-03-19T21:26:04.523Z,2.38
2019-03-19T21:28:35.432Z,2.35
2019-03-19T21:31:06.371Z,2.37
2019-03-19T21:33:37.281Z,2.35
2019-03-19T21:36:08.206Z,2.34
2019-03-19T21:38:39.114Z,2.34
2019-03-19T21:41:10.991Z,2.35
2019-03-19T21:43:41.908Z,2.31
2019-03-19T21:46:12.866Z,2.31
2019-03-19T21:48:43.776Z,2.31
2019-03-19T21:51:14.710Z,2.29
2019-03-19T21:53:45.615Z,2.29
2019-03-19T21:56:17.417Z,2.25
2019-03-19T21:58:48.334Z,2.25
2019-03-19T22:01:19.297Z,2.29
2019-03-19T22:03:50.215Z,2.28
2019-03-19T22:06:21.961Z,2.28
2019-03-19T22:08:52.916Z,2.27
2019-03-19T22:11:24.691Z,2.28
2019-03-19T22:13:55.606Z,2.28
2019-03-19T22:16:26.545Z,2.28
2019-03-19T22:19:01.546Z,2.29
2019-03-19T22:21:32.474Z,2.28
2019-03-19T22:24:03.386Z,2.29
2019-03-19T22:26:35.349Z,2.28
2019-03-19T22:29:06.262Z,2.26
2019-03-19T22:31:37.191Z,2.25
2019-03-19T22:34:13.978Z,2.23
2019-03-19T22:36:40.731Z,2.22
2019-03-19T22:39:11.628Z,2.21
2019-03-19T22:41:43.387Z,2.12
2019-03-19T22:44:14.294Z,2.10
2019-03-19T22:46:45.234Z,2.06
2019-03-19T22:49:16.133Z,2.05
2019-03-19T22:51:47.067Z,2.03
2019-03-19T22:54:17.967Z,1.99
2019-03-19T22:56:49.111Z,2.01
2019-03-19T22:59:20.098Z,2.01
2019-03-19T23:01:51.018Z,2.00
2019-03-19T23:04:27.266Z,1.97
2019-03-19T23:06:54.554Z,1.94
2019-03-19T23:09:26.362Z,1.90
2019-03-19T23:11:57.308Z,1.90
2019-03-19T23:14:28.215Z,1.89
2019-03-19T23:16:59.259Z,1.86
2019-03-19T23:19:30.151Z,1.85
2019-03-19T23:22:01.087Z,1.84
2019-03-19T23:24:31.993Z,1.81
2019-03-19T23:27:02.929Z,1.80
2019-03-19T23:29:33.894Z,1.76
2019-03-19T23:32:04.818Z,1.76
2019-03-19T23:34:38.689Z,1.74
2019-03-19T23:37:08.470Z,1.73
2019-03-19T23:39:39.378Z,1.73
2019-03-19T23:42:10.318Z,1.72
2019-03-19T23:44:41.232Z,1.69
2019-03-19T23:47:12.168Z,1.69
2019-03-19T23:49:43.055Z,1.68
2019-03-19T23:52:14.005Z,1.67
2019-03-19T23:54:44.899Z,1.67
2019-03-19T23:57:15.850Z,1.64
2019-03-19T23:59:46.757Z,1.64
